sensor_id;sensor_type;location;lat;lon;timestamp;pressure;altitude;pressure_sealevel;temperature;humidity
60920;BME280;59039;52.108;19.942;2023-02-25T00:02:14;98405.80;;;5.11;74.78
60920;BME280;59039;52.108;19.942;2023-02-25T00:05:21;98402.13;;;5.12;74.92
60920;BME280;59039;52.108;19.942;2023-02-25T00:07:58;98400.35;;;5.12;74.75
60920;BME280;59039;52.108;19.942;2023-02-25T00:10:38;98400.85;;;5.12;74.82
60920;BME280;59039;52.108;19.942;2023-02-25T00:13:07;98396.09;;;5.13;74.89
60920;BME280;59039;52.108;19.942;2023-02-25T00:15:54;98395.39;;;5.13;74.90
60920;BME280;59039;52.108;19.942;2023-02-25T00:18:25;98390.86;;;5.13;74.95
60920;BME280;59039;52.108;19.942;2023-02-25T00:20:58;98390.11;;;5.13;74.98
60920;BME280;59039;52.108;19.942;2023-02-25T00:26:35;98385.45;;;5.13;75.18
60920;BME280;59039;52.108;19.942;2023-02-25T00:29:34;98382.56;;;5.14;75.44
60920;BME280;59039;52.108;19.942;2023-02-25T00:32:04;98375.17;;;5.12;75.71
60920;BME280;59039;52.108;19.942;2023-02-25T00:34:40;98367.77;;;5.11;75.75
60920;BME280;59039;52.108;19.942;2023-02-25T00:37:17;98367.36;;;5.10;76.03
60920;BME280;59039;52.108;19.942;2023-02-25T00:40:15;98363.16;;;5.07;76.18
60920;BME280;59039;52.108;19.942;2023-02-25T00:42:41;98355.88;;;5.04;76.21
60920;BME280;59039;52.108;19.942;2023-02-25T00:45:23;98357.44;;;5.02;76.22
60920;BME280;59039;52.108;19.942;2023-02-25T00:47:52;98351.63;;;4.99;76.35
60920;BME280;59039;52.108;19.942;2023-02-25T00:50:36;98349.64;;;4.96;76.32
60920;BME280;59039;52.108;19.942;2023-02-25T00:53:04;98345.88;;;4.93;76.43
60920;BME280;59039;52.108;19.942;2023-02-25T00:55:56;98343.72;;;4.90;76.71
60920;BME280;59039;52.108;19.942;2023-02-25T00:58:33;98342.52;;;4.86;76.95
60920;BME280;59039;52.108;19.942;2023-02-25T01:01:01;98340.66;;;4.83;76.95
60920;BME280;59039;52.108;19.942;2023-02-25T01:07:07;98331.38;;;4.74;76.88
60920;BME280;59039;52.108;19.942;2023-02-25T01:12:31;98327.09;;;4.66;77.14
60920;BME280;59039;52.108;19.942;2023-02-25T01:14:56;98324.99;;;4.64;77.47
60920;BME280;59039;52.108;19.942;2023-02-25T01:17:29;98320.48;;;4.63;77.40
60920;BME280;59039;52.108;19.942;2023-02-25T01:22:44;98315.95;;;4.55;77.88
60920;BME280;59039;52.108;19.942;2023-02-25T01:25:17;98312.39;;;4.53;77.89
60920;BME280;59039;52.108;19.942;2023-02-25T01:27:51;98312.73;;;4.50;77.88
60920;BME280;59039;52.108;19.942;2023-02-25T01:30:18;98310.77;;;4.47;78.03
60920;BME280;59039;52.108;19.942;2023-02-25T01:32:56;98313.70;;;4.45;78.21
60920;BME280;59039;52.108;19.942;2023-02-25T01:35:52;98305.94;;;4.42;78.68
60920;BME280;59039;52.108;19.942;2023-02-25T01:38:19;98288.19;;;4.40;78.25
60920;BME280;59039;52.108;19.942;2023-02-25T01:41:04;98279.77;;;4.36;78.27
60920;BME280;59039;52.108;19.942;2023-02-25T01:43:37;98278.02;;;4.34;78.79
60920;BME280;59039;52.108;19.942;2023-02-25T01:46:17;98273.89;;;4.33;78.89
60920;BME280;59039;52.108;19.942;2023-02-25T01:48:43;98274.09;;;4.33;79.05
60920;BME280;59039;52.108;19.942;2023-02-25T01:51:22;98269.33;;;4.32;79.35
60920;BME280;59039;52.108;19.942;2023-02-25T01:53:51;98264.58;;;4.31;79.04
60920;BME280;59039;52.108;19.942;2023-02-25T01:56:45;98263.23;;;4.30;79.21
60920;BME280;59039;52.108;19.942;2023-02-25T01:59:22;98262.05;;;4.30;79.03
60920;BME280;59039;52.108;19.942;2023-02-25T02:01:53;98260.84;;;4.28;79.03
60920;BME280;59039;52.108;19.942;2023-02-25T02:04:24;98259.47;;;4.26;78.67
60920;BME280;59039;52.108;19.942;2023-02-25T02:06:53;98258.30;;;4.23;78.78
60920;BME280;59039;52.108;19.942;2023-02-25T02:09:45;98257.38;;;4.22;78.96
60920;BME280;59039;52.108;19.942;2023-02-25T02:12:13;98257.31;;;4.21;78.90
60920;BME280;59039;52.108;19.942;2023-02-25T02:14:52;98252.34;;;4.18;78.75
60920;BME280;59039;52.108;19.942;2023-02-25T02:20:32;98243.50;;;4.12;78.95
60920;BME280;59039;52.108;19.942;2023-02-25T02:26:36;98243.66;;;4.06;78.77
60920;BME280;59039;52.108;19.942;2023-02-25T02:37:32;98235.95;;;3.91;78.53
60920;BME280;59039;52.108;19.942;2023-02-25T02:40:22;98235.44;;;3.84;78.89
60920;BME280;59039;52.108;19.942;2023-02-25T02:43:33;98230.21;;;3.80;79.23
60920;BME280;59039;52.108;19.942;2023-02-25T02:46:23;98233.58;;;3.75;79.22
60920;BME280;59039;52.108;19.942;2023-02-25T02:49:27;98223.05;;;3.71;78.98
60920;BME280;59039;52.108;19.942;2023-02-25T02:52:00;98221.34;;;3.69;79.37
60920;BME280;59039;52.108;19.942;2023-02-25T02:54:43;98218.21;;;3.66;79.19
60920;BME280;59039;52.108;19.942;2023-02-25T02:57:17;98218.04;;;3.63;80.21
60920;BME280;59039;52.108;19.942;2023-02-25T03:02:39;98222.89;;;3.58;79.75
60920;BME280;59039;52.108;19.942;2023-02-25T03:05:21;98221.77;;;3.55;80.10
60920;BME280;59039;52.108;19.942;2023-02-25T03:07:56;98219.19;;;3.54;80.60
60920;BME280;59039;52.108;19.942;2023-02-25T03:10:33;98215.67;;;3.53;80.44
60920;BME280;59039;52.108;19.942;2023-02-25T03:13:08;98214.63;;;3.53;80.58
60920;BME280;59039;52.108;19.942;2023-02-25T03:15:40;98212.73;;;3.52;79.88
60920;BME280;59039;52.108;19.942;2023-02-25T03:22:06;98220.23;;;3.44;79.74
60920;BME280;59039;52.108;19.942;2023-02-25T03:24:53;98219.48;;;3.39;80.48
60920;BME280;59039;52.108;19.942;2023-02-25T03:28:14;98219.70;;;3.37;80.41
60920;BME280;59039;52.108;19.942;2023-02-25T03:33:35;98220.98;;;3.32;80.25
60920;BME280;59039;52.108;19.942;2023-02-25T03:36:11;98222.89;;;3.31;80.26
60920;BME280;59039;52.108;19.942;2023-02-25T03:38:42;98220.10;;;3.30;80.40
60920;BME280;59039;52.108;19.942;2023-02-25T03:41:10;98224.30;;;3.29;80.14
60920;BME280;59039;52.108;19.942;2023-02-25T03:44:03;98222.73;;;3.29;80.23
60920;BME280;59039;52.108;19.942;2023-02-25T03:46:35;98226.23;;;3.26;80.24
60920;BME280;59039;52.108;19.942;2023-02-25T03:49:25;98228.00;;;3.25;80.36
60920;BME280;59039;52.108;19.942;2023-02-25T03:52:14;98232.14;;;3.23;80.55
60920;BME280;59039;52.108;19.942;2023-02-25T03:54:50;98235.69;;;3.20;80.37
60920;BME280;59039;52.108;19.942;2023-02-25T03:57:37;98240.24;;;3.18;80.46
60920;BME280;59039;52.108;19.942;2023-02-25T04:00:24;98242.60;;;3.15;80.31
60920;BME280;59039;52.108;19.942;2023-02-25T04:02:50;98240.59;;;3.12;80.57
60920;BME280;59039;52.108;19.942;2023-02-25T04:05:26;98240.95;;;3.11;80.54
60920;BME280;59039;52.108;19.942;2023-02-25T04:08:12;98241.21;;;3.08;80.42
60920;BME280;59039;52.108;19.942;2023-02-25T04:11:08;98239.08;;;3.04;80.80
60920;BME280;59039;52.108;19.942;2023-02-25T04:13:38;98240.48;;;3.03;80.91
60920;BME280;59039;52.108;19.942;2023-02-25T04:16:09;98238.23;;;3.02;80.99
60920;BME280;59039;52.108;19.942;2023-02-25T04:24:21;98231.38;;;2.98;81.33
60920;BME280;59039;52.108;19.942;2023-02-25T04:29:35;98231.84;;;2.95;81.20
60920;BME280;59039;52.108;19.942;2023-02-25T04:32:06;98231.69;;;2.95;81.27
60920;BME280;59039;52.108;19.942;2023-02-25T04:37:09;98224.64;;;2.93;81.21
60920;BME280;59039;52.108;19.942;2023-02-25T04:39:47;98224.03;;;2.92;81.42
60920;BME280;59039;52.108;19.942;2023-02-25T04:42:27;98218.70;;;2.92;82.12
60920;BME280;59039;52.108;19.942;2023-02-25T04:44:58;98220.58;;;2.93;81.88
60920;BME280;59039;52.108;19.942;2023-02-25T04:47:55;98217.93;;;2.95;81.63
60920;BME280;59039;52.108;19.942;2023-02-25T04:50:43;98217.48;;;2.96;81.90
60920;BME280;59039;52.108;19.942;2023-02-25T04:53:30;98216.35;;;2.98;81.25
60920;BME280;59039;52.108;19.942;2023-02-25T04:56:04;98218.52;;;2.98;81.40
60920;BME280;59039;52.108;19.942;2023-02-25T04:58:36;98210.65;;;2.98;82.07
60920;BME280;59039;52.108;19.942;2023-02-25T05:01:15;98209.43;;;2.99;81.68
60920;BME280;59039;52.108;19.942;2023-02-25T05:04:12;98204.90;;;3.00;81.85
60920;BME280;59039;52.108;19.942;2023-02-25T05:07:18;98200.55;;;3.00;82.00
60920;BME280;59039;52.108;19.942;2023-02-25T05:13:06;98196.48;;;3.00;81.86
60920;BME280;59039;52.108;19.942;2023-02-25T05:16:01;98190.48;;;2.99;81.60
60920;BME280;59039;52.108;19.942;2023-02-25T05:21:36;98188.83;;;2.96;81.92
60920;BME280;59039;52.108;19.942;2023-02-25T05:32:25;98187.55;;;2.96;82.49
60920;BME280;59039;52.108;19.942;2023-02-25T05:35:22;98183.41;;;2.98;82.41
60920;BME280;59039;52.108;19.942;2023-02-25T05:38:02;98182.00;;;3.00;82.39
60920;BME280;59039;52.108;19.942;2023-02-25T05:40:49;98182.77;;;3.01;82.36
60920;BME280;59039;52.108;19.942;2023-02-25T05:43:29;98183.23;;;3.01;82.48
60920;BME280;59039;52.108;19.942;2023-02-25T05:46:07;98187.52;;;3.02;82.42
60920;BME280;59039;52.108;19.942;2023-02-25T05:51:26;98187.79;;;3.04;82.98
60920;BME280;59039;52.108;19.942;2023-02-25T05:54:01;98185.64;;;3.05;82.61
60920;BME280;59039;52.108;19.942;2023-02-25T05:57:08;98186.42;;;3.07;82.73
60920;BME280;59039;52.108;19.942;2023-02-25T05:59:36;98186.38;;;3.09;83.18
60920;BME280;59039;52.108;19.942;2023-02-25T06:02:26;98188.65;;;3.11;83.02
60920;BME280;59039;52.108;19.942;2023-02-25T06:05:00;98188.20;;;3.14;82.96
60920;BME280;59039;52.108;19.942;2023-02-25T06:07:32;98189.47;;;3.15;82.71
60920;BME280;59039;52.108;19.942;2023-02-25T06:10:27;98190.33;;;3.17;82.56
60920;BME280;59039;52.108;19.942;2023-02-25T06:12:58;98190.02;;;3.19;82.39
60920;BME280;59039;52.108;19.942;2023-02-25T06:15:28;98192.91;;;3.18;82.25
60920;BME280;59039;52.108;19.942;2023-02-25T06:18:07;98190.79;;;3.18;82.50
60920;BME280;59039;52.108;19.942;2023-02-25T06:20:53;98188.69;;;3.19;82.76
60920;BME280;59039;52.108;19.942;2023-02-25T06:24:00;98192.67;;;3.22;82.81
60920;BME280;59039;52.108;19.942;2023-02-25T06:26:52;98190.70;;;3.24;82.97
60920;BME280;59039;52.108;19.942;2023-02-25T06:31:58;98184.54;;;3.24;83.07
60920;BME280;59039;52.108;19.942;2023-02-25T06:34:49;98185.65;;;3.26;82.78
60920;BME280;59039;52.108;19.942;2023-02-25T06:43:01;98183.08;;;3.31;83.40
60920;BME280;59039;52.108;19.942;2023-02-25T06:45:27;98182.69;;;3.33;83.30
60920;BME280;59039;52.108;19.942;2023-02-25T06:48:23;98181.35;;;3.36;83.16
60920;BME280;59039;52.108;19.942;2023-02-25T06:50:53;98181.52;;;3.38;83.20
60920;BME280;59039;52.108;19.942;2023-02-25T06:53:22;98180.45;;;3.39;83.02
60920;BME280;59039;52.108;19.942;2023-02-25T06:55:50;98177.14;;;3.41;82.64
60920;BME280;59039;52.108;19.942;2023-02-25T06:58:21;98179.85;;;3.40;82.80
60920;BME280;59039;52.108;19.942;2023-02-25T07:00:58;98177.13;;;3.42;83.09
60920;BME280;59039;52.108;19.942;2023-02-25T07:03:34;98178.02;;;3.44;83.17
60920;BME280;59039;52.108;19.942;2023-02-25T07:06:10;98176.88;;;3.48;83.16
60920;BME280;59039;52.108;19.942;2023-02-25T07:08:38;98181.00;;;3.51;83.08
60920;BME280;59039;52.108;19.942;2023-02-25T07:11:30;98182.77;;;3.53;83.04
60920;BME280;59039;52.108;19.942;2023-02-25T07:14:09;98184.19;;;3.55;83.03
60920;BME280;59039;52.108;19.942;2023-02-25T07:19:38;98186.64;;;3.59;82.95
60920;BME280;59039;52.108;19.942;2023-02-25T07:22:24;98185.77;;;3.62;82.97
60920;BME280;59039;52.108;19.942;2023-02-25T07:24:55;98183.83;;;3.65;82.96
60920;BME280;59039;52.108;19.942;2023-02-25T07:27:29;98181.04;;;3.67;82.84
60920;BME280;59039;52.108;19.942;2023-02-25T07:29:55;98182.22;;;3.70;82.79
60920;BME280;59039;52.108;19.942;2023-02-25T07:32:43;98182.50;;;3.72;82.84
60920;BME280;59039;52.108;19.942;2023-02-25T07:35:31;98180.98;;;3.76;82.91
60920;BME280;59039;52.108;19.942;2023-02-25T07:38:21;98181.45;;;3.80;82.77
60920;BME280;59039;52.108;19.942;2023-02-25T07:43:45;98173.90;;;3.90;83.09
60920;BME280;59039;52.108;19.942;2023-02-25T07:49:11;98171.60;;;3.96;82.71
60920;BME280;59039;52.108;19.942;2023-02-25T07:51:37;98171.05;;;4.00;82.60
60920;BME280;59039;52.108;19.942;2023-02-25T07:54:25;98171.30;;;4.03;82.43
60920;BME280;59039;52.108;19.942;2023-02-25T07:57:17;98168.33;;;4.07;82.42
60920;BME280;59039;52.108;19.942;2023-02-25T07:59:44;98170.88;;;4.09;82.38
60920;BME280;59039;52.108;19.942;2023-02-25T08:02:16;98170.73;;;4.14;82.38
60920;BME280;59039;52.108;19.942;2023-02-25T08:05:04;98172.45;;;4.18;82.32
60920;BME280;59039;52.108;19.942;2023-02-25T08:07:33;98172.55;;;4.22;82.16
60920;BME280;59039;52.108;19.942;2023-02-25T08:10:22;98171.91;;;4.25;82.20
60920;BME280;59039;52.108;19.942;2023-02-25T08:13:07;98173.02;;;4.28;82.20
60920;BME280;59039;52.108;19.942;2023-02-25T08:15:39;98171.39;;;4.31;82.16
60920;BME280;59039;52.108;19.942;2023-02-25T08:18:07;98164.81;;;4.32;82.10
60920;BME280;59039;52.108;19.942;2023-02-25T08:20:52;98166.15;;;4.34;82.08
60920;BME280;59039;52.108;19.942;2023-02-25T08:23:20;98167.70;;;4.37;82.15
60920;BME280;59039;52.108;19.942;2023-02-25T08:25:46;98163.05;;;4.40;82.15
60920;BME280;59039;52.108;19.942;2023-02-25T08:28:21;98161.27;;;4.43;82.00
60920;BME280;59039;52.108;19.942;2023-02-25T08:30:47;98160.76;;;4.46;82.00
60920;BME280;59039;52.108;19.942;2023-02-25T08:35:59;98172.31;;;4.50;81.73
60920;BME280;59039;52.108;19.942;2023-02-25T08:38:32;98174.73;;;4.48;81.67
60920;BME280;59039;52.108;19.942;2023-02-25T08:41:21;98176.08;;;4.47;81.61
60920;BME280;59039;52.108;19.942;2023-02-25T08:44:11;98175.57;;;4.47;81.58
60920;BME280;59039;52.108;19.942;2023-02-25T08:49:27;98173.30;;;4.45;81.63
60920;BME280;59039;52.108;19.942;2023-02-25T08:51:56;98172.42;;;4.44;81.72
60920;BME280;59039;52.108;19.942;2023-02-25T08:55:02;98169.47;;;4.44;82.00
60920;BME280;59039;52.108;19.942;2023-02-25T08:57:30;98169.36;;;4.45;82.11
60920;BME280;59039;52.108;19.942;2023-02-25T09:00:19;98171.55;;;4.46;82.29
60920;BME280;59039;52.108;19.942;2023-02-25T09:02:56;98169.29;;;4.48;82.34
60920;BME280;59039;52.108;19.942;2023-02-25T09:05:24;98169.32;;;4.50;82.15
60920;BME280;59039;52.108;19.942;2023-02-25T09:08:15;98166.93;;;4.50;82.00
60920;BME280;59039;52.108;19.942;2023-02-25T09:11:04;98165.55;;;4.50;81.90
60920;BME280;59039;52.108;19.942;2023-02-25T09:13:34;98164.98;;;4.50;82.14
60920;BME280;59039;52.108;19.942;2023-02-25T09:16:02;98165.44;;;4.52;82.00
60920;BME280;59039;52.108;19.942;2023-02-25T09:18:30;98165.40;;;4.56;82.02
60920;BME280;59039;52.108;19.942;2023-02-25T09:20:58;98161.36;;;4.58;81.74
60920;BME280;59039;52.108;19.942;2023-02-25T09:23:33;98161.48;;;4.58;81.64
60920;BME280;59039;52.108;19.942;2023-02-25T09:26:27;98162.23;;;4.56;81.48
60920;BME280;59039;52.108;19.942;2023-02-25T09:28:58;98157.73;;;4.57;81.61
60920;BME280;59039;52.108;19.942;2023-02-25T09:31:27;98158.61;;;4.57;81.49
60920;BME280;59039;52.108;19.942;2023-02-25T09:33:52;98156.62;;;4.57;81.50
60920;BME280;59039;52.108;19.942;2023-02-25T09:36:40;98157.55;;;4.57;81.28
60920;BME280;59039;52.108;19.942;2023-02-25T09:39:21;98161.27;;;4.56;81.03
60920;BME280;59039;52.108;19.942;2023-02-25T09:42:10;98165.04;;;4.54;80.48
60920;BME280;59039;52.108;19.942;2023-02-25T09:44:43;98163.26;;;4.54;80.23
60920;BME280;59039;52.108;19.942;2023-02-25T09:47:22;98166.31;;;4.57;80.32
60920;BME280;59039;52.108;19.942;2023-02-25T09:49:55;98164.02;;;4.60;80.48
60920;BME280;59039;52.108;19.942;2023-02-25T09:52:26;98164.25;;;4.65;80.41
60920;BME280;59039;52.108;19.942;2023-02-25T09:55:15;98161.64;;;4.70;80.98
60920;BME280;59039;52.108;19.942;2023-02-25T09:57:43;98154.30;;;4.78;81.42
60920;BME280;59039;52.108;19.942;2023-02-25T10:00:17;98160.55;;;4.86;81.00
60920;BME280;59039;52.108;19.942;2023-02-25T10:08:42;98160.67;;;5.02;80.11
60920;BME280;59039;52.108;19.942;2023-02-25T10:11:26;98162.55;;;5.05;79.63
60920;BME280;59039;52.108;19.942;2023-02-25T10:17:11;98159.91;;;5.17;80.14
60920;BME280;59039;52.108;19.942;2023-02-25T10:19:49;98159.98;;;5.23;80.29
60920;BME280;59039;52.108;19.942;2023-02-25T10:22:44;98159.11;;;5.27;80.05
60920;BME280;59039;52.108;19.942;2023-02-25T10:25:20;98160.27;;;5.30;79.74
60920;BME280;59039;52.108;19.942;2023-02-25T10:30:55;98178.66;;;5.19;79.40
60920;BME280;59039;52.108;19.942;2023-02-25T10:33:24;98183.81;;;5.09;78.32
60920;BME280;59039;52.108;19.942;2023-02-25T10:36:17;98183.45;;;4.96;78.41
60920;BME280;59039;52.108;19.942;2023-02-25T10:38:46;98180.77;;;4.85;79.24
60920;BME280;59039;52.108;19.942;2023-02-25T10:41:13;98185.23;;;4.77;79.57
60920;BME280;59039;52.108;19.942;2023-02-25T10:43:38;98182.17;;;4.73;79.96
60920;BME280;59039;52.108;19.942;2023-02-25T10:46:51;98181.96;;;4.70;80.13
60920;BME280;59039;52.108;19.942;2023-02-25T10:49:20;98183.04;;;4.68;80.41
60920;BME280;59039;52.108;19.942;2023-02-25T10:52:01;98184.28;;;4.65;80.22
60920;BME280;59039;52.108;19.942;2023-02-25T10:54:26;98189.37;;;4.58;80.25
60920;BME280;59039;52.108;19.942;2023-02-25T10:56:58;98193.92;;;4.52;80.28
60920;BME280;59039;52.108;19.942;2023-02-25T10:59:49;98194.11;;;4.46;80.05
60920;BME280;59039;52.108;19.942;2023-02-25T11:02:22;98197.45;;;4.37;80.18
60920;BME280;59039;52.108;19.942;2023-02-25T11:04:54;98196.65;;;4.31;80.62
60920;BME280;59039;52.108;19.942;2023-02-25T11:07:41;98196.63;;;4.30;80.89
60920;BME280;59039;52.108;19.942;2023-02-25T11:10:22;98195.02;;;4.30;81.15
60920;BME280;59039;52.108;19.942;2023-02-25T11:12:55;98192.58;;;4.29;81.18
60920;BME280;59039;52.108;19.942;2023-02-25T11:17:50;98188.23;;;4.33;81.54
60920;BME280;59039;52.108;19.942;2023-02-25T11:20:25;98188.06;;;4.36;81.48
60920;BME280;59039;52.108;19.942;2023-02-25T11:23:00;98191.66;;;4.37;81.47
60920;BME280;59039;52.108;19.942;2023-02-25T11:25:37;98189.30;;;4.39;81.47
60920;BME280;59039;52.108;19.942;2023-02-25T11:28:07;98185.60;;;4.42;81.60
60920;BME280;59039;52.108;19.942;2023-02-25T11:31:34;98182.61;;;4.46;81.69
60920;BME280;59039;52.108;19.942;2023-02-25T11:33:41;98186.35;;;4.51;81.56
60920;BME280;59039;52.108;19.942;2023-02-25T11:36:21;98185.90;;;4.55;81.42
60920;BME280;59039;52.108;19.942;2023-02-25T11:39:16;98185.38;;;4.58;81.26
60920;BME280;59039;52.108;19.942;2023-02-25T11:41:48;98185.61;;;4.59;80.71
60920;BME280;59039;52.108;19.942;2023-02-25T11:44:42;98182.79;;;4.61;80.39
60920;BME280;59039;52.108;19.942;2023-02-25T11:47:33;98183.00;;;4.64;80.24
60920;BME280;59039;52.108;19.942;2023-02-25T12:02:41;98189.38;;;4.71;79.59
60920;BME280;59039;52.108;19.942;2023-02-25T12:11:02;98190.20;;;4.78;79.02
60920;BME280;59039;52.108;19.942;2023-02-25T12:25:42;98200.50;;;4.87;78.16
60920;BME280;59039;52.108;19.942;2023-02-25T12:28:18;98203.09;;;4.88;77.85
60920;BME280;59039;52.108;19.942;2023-02-25T12:31:05;98207.12;;;4.90;77.66
60920;BME280;59039;52.108;19.942;2023-02-25T12:37:15;98217.48;;;4.91;78.55
60920;BME280;59039;52.108;19.942;2023-02-25T12:45:40;98230.16;;;4.88;78.93
60920;BME280;59039;52.108;19.942;2023-02-25T12:54:45;98233.63;;;4.83;78.85
60920;BME280;59039;52.108;19.942;2023-02-25T13:00:10;98243.38;;;4.79;78.49
60920;BME280;59039;52.108;19.942;2023-02-25T13:03:01;98245.43;;;4.78;78.63
60920;BME280;59039;52.108;19.942;2023-02-25T13:06:36;98254.22;;;4.78;78.69
60920;BME280;59039;52.108;19.942;2023-02-25T13:09:28;98258.09;;;4.75;78.58
60920;BME280;59039;52.108;19.942;2023-02-25T13:12:04;98266.70;;;4.74;79.19
60920;BME280;59039;52.108;19.942;2023-02-25T13:17:50;98272.16;;;4.70;79.77
60920;BME280;59039;52.108;19.942;2023-02-25T13:20:31;98274.73;;;4.65;79.59
60920;BME280;59039;52.108;19.942;2023-02-25T13:29:44;98285.63;;;4.47;80.06
60920;BME280;59039;52.108;19.942;2023-02-25T13:32:43;98292.63;;;4.40;80.33
60920;BME280;59039;52.108;19.942;2023-02-25T13:35:49;98296.84;;;4.35;81.10
60920;BME280;59039;52.108;19.942;2023-02-25T14:10:24;98336.23;;;4.25;81.20
60920;BME280;59039;52.108;19.942;2023-02-25T14:13:15;98336.70;;;4.28;81.18
60920;BME280;59039;52.108;19.942;2023-02-25T14:22:33;98350.39;;;4.30;79.70
60920;BME280;59039;52.108;19.942;2023-02-25T14:24:39;98352.45;;;4.29;79.57
60920;BME280;59039;52.108;19.942;2023-02-25T14:36:36;98373.65;;;4.29;80.44
60920;BME280;59039;52.108;19.942;2023-02-25T14:45:16;98389.38;;;4.25;80.54
60920;BME280;59039;52.108;19.942;2023-02-25T15:08:31;98418.06;;;4.11;81.84
60920;BME280;59039;52.108;19.942;2023-02-25T15:11:28;98422.73;;;4.09;81.85
60920;BME280;59039;52.108;19.942;2023-02-25T15:20:27;98432.79;;;4.02;81.78
60920;BME280;59039;52.108;19.942;2023-02-25T15:23:08;98441.64;;;4.03;81.70
60920;BME280;59039;52.108;19.942;2023-02-25T15:31:36;98449.61;;;4.01;81.71
60920;BME280;59039;52.108;19.942;2023-02-25T15:38:10;98456.58;;;4.01;81.77
60920;BME280;59039;52.108;19.942;2023-02-25T15:41:02;98469.04;;;4.00;81.60
60920;BME280;59039;52.108;19.942;2023-02-25T15:49:14;98480.10;;;3.95;81.59
60920;BME280;59039;52.108;19.942;2023-02-25T15:52:05;98486.27;;;3.94;81.84
60920;BME280;59039;52.108;19.942;2023-02-25T15:54:53;98494.33;;;3.93;81.92
60920;BME280;59039;52.108;19.942;2023-02-25T16:00:50;98503.95;;;3.90;82.19
60920;BME280;59039;52.108;19.942;2023-02-25T16:03:54;98508.85;;;3.89;82.35
60920;BME280;59039;52.108;19.942;2023-02-25T16:06:38;98516.04;;;3.89;82.63
60920;BME280;59039;52.108;19.942;2023-02-25T16:17:29;98531.22;;;3.88;82.29
60920;BME280;59039;52.108;19.942;2023-02-25T16:20:11;98535.55;;;3.86;82.39
60920;BME280;59039;52.108;19.942;2023-02-25T16:22:56;98537.52;;;3.84;82.32
60920;BME280;59039;52.108;19.942;2023-02-25T16:26:07;98545.79;;;3.82;82.23
60920;BME280;59039;52.108;19.942;2023-02-25T16:29:03;98551.27;;;3.79;82.53
60920;BME280;59039;52.108;19.942;2023-02-25T16:32:44;98558.23;;;3.78;82.53
60920;BME280;59039;52.108;19.942;2023-02-25T16:40:28;98575.33;;;3.73;82.70
60920;BME280;59039;52.108;19.942;2023-02-25T16:43:01;98578.25;;;3.73;82.71
60920;BME280;59039;52.108;19.942;2023-02-25T16:45:56;98583.17;;;3.72;82.78
60920;BME280;59039;52.108;19.942;2023-02-25T16:48:35;98587.25;;;3.72;82.89
60920;BME280;59039;52.108;19.942;2023-02-25T16:56:34;98600.02;;;3.72;83.24
60920;BME280;59039;52.108;19.942;2023-02-25T16:59:21;98599.00;;;3.73;83.39
60920;BME280;59039;52.108;19.942;2023-02-25T17:04:37;98610.61;;;3.72;83.59
60920;BME280;59039;52.108;19.942;2023-02-25T17:07:31;98615.49;;;3.73;83.46
60920;BME280;59039;52.108;19.942;2023-02-25T17:10:02;98618.61;;;3.74;83.61
60920;BME280;59039;52.108;19.942;2023-02-25T17:18:27;98631.50;;;3.80;83.47
60920;BME280;59039;52.108;19.942;2023-02-25T17:24:13;98644.09;;;3.75;83.71
60920;BME280;59039;52.108;19.942;2023-02-25T17:29:17;98658.48;;;3.69;83.80
60920;BME280;59039;52.108;19.942;2023-02-25T17:31:45;98659.72;;;3.66;83.94
60920;BME280;59039;52.108;19.942;2023-02-25T17:34:15;98665.16;;;3.65;84.00
60920;BME280;59039;52.108;19.942;2023-02-25T17:36:42;98666.36;;;3.66;83.94
60920;BME280;59039;52.108;19.942;2023-02-25T17:39:17;98672.10;;;3.64;83.74
60920;BME280;59039;52.108;19.942;2023-02-25T17:41:47;98674.42;;;3.62;83.19
60920;BME280;59039;52.108;19.942;2023-02-25T17:47:45;98685.85;;;3.59;82.59
60920;BME280;59039;52.108;19.942;2023-02-25T17:50:21;98693.12;;;3.56;82.09
60920;BME280;59039;52.108;19.942;2023-02-25T17:52:52;98696.14;;;3.54;81.97
60920;BME280;59039;52.108;19.942;2023-02-25T17:55:33;98697.70;;;3.53;82.04
60920;BME280;59039;52.108;19.942;2023-02-25T17:58:04;98700.52;;;3.52;81.91
60920;BME280;59039;52.108;19.942;2023-02-25T18:00:34;98705.34;;;3.50;82.01
60920;BME280;59039;52.108;19.942;2023-02-25T18:03:16;98711.52;;;3.49;82.12
60920;BME280;59039;52.108;19.942;2023-02-25T18:09:03;98718.38;;;3.49;82.36
60920;BME280;59039;52.108;19.942;2023-02-25T18:11:35;98723.10;;;3.48;82.26
60920;BME280;59039;52.108;19.942;2023-02-25T18:14:21;98726.08;;;3.47;82.11
60920;BME280;59039;52.108;19.942;2023-02-25T18:16:52;98731.99;;;3.47;82.03
60920;BME280;59039;52.108;19.942;2023-02-25T18:19:32;98736.60;;;3.47;81.97
60920;BME280;59039;52.108;19.942;2023-02-25T18:22:03;98741.08;;;3.46;81.73
60920;BME280;59039;52.108;19.942;2023-02-25T18:24:32;98748.61;;;3.44;81.78
60920;BME280;59039;52.108;19.942;2023-02-25T18:27:45;98751.88;;;3.41;81.67
60920;BME280;59039;52.108;19.942;2023-02-25T18:29:52;98757.61;;;3.40;81.50
60920;BME280;59039;52.108;19.942;2023-02-25T18:35:03;98759.51;;;3.37;81.52
60920;BME280;59039;52.108;19.942;2023-02-25T18:37:33;98764.36;;;3.36;81.48
60920;BME280;59039;52.108;19.942;2023-02-25T18:40:02;98770.64;;;3.36;81.63
60920;BME280;59039;52.108;19.942;2023-02-25T18:42:31;98774.43;;;3.34;81.62
60920;BME280;59039;52.108;19.942;2023-02-25T18:44:56;98779.55;;;3.31;81.83
60920;BME280;59039;52.108;19.942;2023-02-25T18:47:21;98781.50;;;3.29;81.94
60920;BME280;59039;52.108;19.942;2023-02-25T18:49:59;98790.83;;;3.29;81.96
60920;BME280;59039;52.108;19.942;2023-02-25T18:52:25;98797.33;;;3.28;81.90
60920;BME280;59039;52.108;19.942;2023-02-25T18:55:19;98801.58;;;3.29;81.81
60920;BME280;59039;52.108;19.942;2023-02-25T18:58:10;98804.23;;;3.29;81.81
60920;BME280;59039;52.108;19.942;2023-02-25T19:03:31;98815.50;;;3.31;81.77
60920;BME280;59039;52.108;19.942;2023-02-25T19:06:00;98822.67;;;3.31;81.69
60920;BME280;59039;52.108;19.942;2023-02-25T19:11:01;98829.69;;;3.31;81.64